sensor_id;sensor_type;location;lat;lon;timestamp;pressure;altitude;pressure_sealevel;temperature;humidity
51259;BME280;37327;54.254;18.504;2023-03-22T00:01:21;100630.31;;;6.90;93.90
51259;BME280;37327;54.254;18.504;2023-03-22T00:04:41;100615.73;;;6.93;94.05
51259;BME280;37327;54.254;18.504;2023-03-22T00:07:58;100617.42;;;6.94;94.16
51259;BME280;37327;54.254;18.504;2023-03-22T00:11:16;100613.58;;;6.97;94.42
51259;BME280;37327;54.254;18.504;2023-03-22T00:14:34;100606.22;;;6.99;94.60
51259;BME280;37327;54.254;18.504;2023-03-22T00:17:52;100604.21;;;7.01;94.61
51259;BME280;37327;54.254;18.504;2023-03-22T00:21:15;100599.70;;;7.01;94.83
51259;BME280;37327;54.254;18.504;2023-03-22T00:24:33;100598.70;;;7.02;94.58
51259;BME280;37327;54.254;18.504;2023-03-22T00:27:51;100590.50;;;7.04;95.20
51259;BME280;37327;54.254;18.504;2023-03-22T00:31:09;100597.38;;;7.06;95.05
51259;BME280;37327;54.254;18.504;2023-03-22T00:34:30;100586.65;;;7.06;95.37
51259;BME280;37327;54.254;18.504;2023-03-22T00:37:48;100591.03;;;7.07;95.67
51259;BME280;37327;54.254;18.504;2023-03-22T00:41:12;100587.33;;;7.08;95.85
51259;BME280;37327;54.254;18.504;2023-03-22T00:44:29;100580.97;;;7.09;95.99
51259;BME280;37327;54.254;18.504;2023-03-22T00:47:47;100579.95;;;7.10;96.21
51259;BME280;37327;54.254;18.504;2023-03-22T00:51:05;100574.59;;;7.10;96.30
51259;BME280;37327;54.254;18.504;2023-03-22T00:54:23;100576.13;;;7.13;96.44
51259;BME280;37327;54.254;18.504;2023-03-22T00:57:40;100564.23;;;7.16;96.68
51259;BME280;37327;54.254;18.504;2023-03-22T03:59:24;100427.91;;;7.01;100.00
51259;BME280;37327;54.254;18.504;2023-03-22T04:02:42;100417.18;;;7.01;100.00
51259;BME280;37327;54.254;18.504;2023-03-22T04:06:01;100422.55;;;7.01;100.00
51259;BME280;37327;54.254;18.504;2023-03-22T04:09:19;100419.00;;;7.01;100.00
51259;BME280;37327;54.254;18.504;2023-03-22T04:12:36;100424.37;;;7.01;100.00
51259;BME280;37327;54.254;18.504;2023-03-22T04:15:54;100410.27;;;6.99;100.00
51259;BME280;37327;54.254;18.504;2023-03-22T04:19:18;100405.93;;;6.98;100.00
51259;BME280;37327;54.254;18.504;2023-03-22T04:22:36;100404.23;;;6.97;100.00
51259;BME280;37327;54.254;18.504;2023-03-22T04:25:54;100407.77;;;6.97;100.00
51259;BME280;37327;54.254;18.504;2023-03-22T04:29:15;100417.80;;;6.95;100.00
51259;BME280;37327;54.254;18.504;2023-03-22T04:32:32;100412.43;;;6.95;100.00
51259;BME280;37327;54.254;18.504;2023-03-22T04:35:49;100412.28;;;6.97;100.00
51259;BME280;37327;54.254;18.504;2023-03-22T04:39:12;100404.23;;;6.97;100.00
51259;BME280;37327;54.254;18.504;2023-03-22T04:42:30;100409.43;;;6.98;100.00
51259;BME280;37327;54.254;18.504;2023-03-22T04:45:47;100403.09;;;6.99;100.00
51259;BME280;37327;54.254;18.504;2023-03-22T04:49:05;100393.34;;;6.98;100.00
51259;BME280;37327;54.254;18.504;2023-03-22T04:52:22;100398.55;;;7.00;100.00
51259;BME280;37327;54.254;18.504;2023-03-22T04:55:40;100385.13;;;7.00;100.00
51259;BME280;37327;54.254;18.504;2023-03-22T04:58:58;100383.27;;;7.00;100.00
51259;BME280;37327;54.254;18.504;2023-03-22T05:02:17;100380.59;;;7.00;100.00
51259;BME280;37327;54.254;18.504;2023-03-22T05:05:34;100376.05;;;7.01;100.00
51259;BME280;37327;54.254;18.504;2023-03-22T05:08:52;100371.55;;;7.01;100.00
51259;BME280;37327;54.254;18.504;2023-03-22T05:12:09;100371.36;;;7.03;100.00
51259;BME280;37327;54.254;18.504;2023-03-22T05:15:26;100364.17;;;7.03;100.00
51259;BME280;37327;54.254;18.504;2023-03-22T05:18:44;100355.09;;;7.04;100.00
51259;BME280;37327;54.254;18.504;2023-03-22T05:22:01;100347.73;;;7.06;100.00
51259;BME280;37327;54.254;18.504;2023-03-22T05:25:19;100353.77;;;7.08;100.00
51259;BME280;37327;54.254;18.504;2023-03-22T05:28:37;100346.58;;;7.09;100.00
51259;BME280;37327;54.254;18.504;2023-03-22T05:31:55;100347.41;;;7.09;100.00
51259;BME280;37327;54.254;18.504;2023-03-22T05:35:13;100347.41;;;7.09;100.00
51259;BME280;37327;54.254;18.504;2023-03-22T05:38:30;100346.23;;;7.12;100.00
51259;BME280;37327;54.254;18.504;2023-03-22T05:41:47;100355.12;;;7.12;100.00
51259;BME280;37327;54.254;18.504;2023-03-22T05:45:05;100357.49;;;7.16;100.00
51259;BME280;37327;54.254;18.504;2023-03-22T05:48:22;100354.31;;;7.20;100.00
51259;BME280;37327;54.254;18.504;2023-03-22T05:51:40;100357.52;;;7.24;100.00
51259;BME280;37327;54.254;18.504;2023-03-22T05:54:58;100366.92;;;7.28;100.00
51259;BME280;37327;54.254;18.504;2023-03-22T05:58:16;100361.23;;;7.31;100.00
51259;BME280;37327;54.254;18.504;2023-03-22T06:01:35;100365.27;;;7.35;100.00
51259;BME280;37327;54.254;18.504;2023-03-22T06:04:54;100362.43;;;7.37;100.00
51259;BME280;37327;54.254;18.504;2023-03-22T06:08:11;100366.45;;;7.41;100.00
51259;BME280;37327;54.254;18.504;2023-03-22T06:11:28;100344.97;;;7.41;100.00
51259;BME280;37327;54.254;18.504;2023-03-22T06:14:51;100354.53;;;7.43;100.00
51259;BME280;37327;54.254;18.504;2023-03-22T06:18:08;100359.91;;;7.43;100.00
51259;BME280;37327;54.254;18.504;2023-03-22T06:21:26;100358.91;;;7.44;100.00
51259;BME280;37327;54.254;18.504;2023-03-22T06:24:43;100369.47;;;7.46;100.00
51259;BME280;37327;54.254;18.504;2023-03-22T06:28:00;100371.01;;;7.48;100.00
51259;BME280;37327;54.254;18.504;2023-03-22T06:31:17;100370.66;;;7.51;100.00
51259;BME280;37327;54.254;18.504;2023-03-22T06:34:34;100367.81;;;7.53;100.00
51259;BME280;37327;54.254;18.504;2023-03-22T06:37:52;100374.70;;;7.56;100.00
51259;BME280;37327;54.254;18.504;2023-03-22T06:41:09;100379.07;;;7.57;100.00
51259;BME280;37327;54.254;18.504;2023-03-22T06:44:27;100369.32;;;7.56;100.00
51259;BME280;37327;54.254;18.504;2023-03-22T06:47:45;100371.02;;;7.57;100.00
51259;BME280;37327;54.254;18.504;2023-03-22T06:51:02;100369.67;;;7.61;100.00
51259;BME280;37327;54.254;18.504;2023-03-22T06:54:20;100374.21;;;7.68;100.00
51259;BME280;37327;54.254;18.504;2023-03-22T06:57:37;100373.71;;;7.73;100.00
51259;BME280;37327;54.254;18.504;2023-03-22T07:00:55;100377.42;;;7.80;100.00
51259;BME280;37327;54.254;18.504;2023-03-22T07:04:13;100371.05;;;7.89;100.00
51259;BME280;37327;54.254;18.504;2023-03-22T07:07:31;100369.70;;;8.02;100.00
51259;BME280;37327;54.254;18.504;2023-03-22T07:10:49;100372.56;;;8.08;100.00
51259;BME280;37327;54.254;18.504;2023-03-22T07:14:08;100374.40;;;8.08;100.00
51259;BME280;37327;54.254;18.504;2023-03-22T07:17:25;100372.38;;;8.10;100.00
51259;BME280;37327;54.254;18.504;2023-03-22T07:20:44;100369.52;;;8.20;100.00
51259;BME280;37327;54.254;18.504;2023-03-22T07:24:02;100360.41;;;8.37;100.00
51259;BME280;37327;54.254;18.504;2023-03-22T07:27:19;100358.58;;;8.54;100.00
51259;BME280;37327;54.254;18.504;2023-03-22T07:30:38;100369.64;;;8.67;100.00
51259;BME280;37327;54.254;18.504;2023-03-22T07:33:56;100366.75;;;8.77;100.00
51259;BME280;37327;54.254;18.504;2023-03-22T07:37:14;100361.99;;;8.87;100.00
51259;BME280;37327;54.254;18.504;2023-03-22T07:40:32;100360.09;;;8.96;100.00
51259;BME280;37327;54.254;18.504;2023-03-22T07:43:49;100363.73;;;9.12;100.00
51259;BME280;37327;54.254;18.504;2023-03-22T07:47:06;100357.30;;;9.21;100.00
51259;BME280;37327;54.254;18.504;2023-03-22T07:50:24;100354.59;;;9.21;100.00
51259;BME280;37327;54.254;18.504;2023-03-22T07:53:41;100345.86;;;9.19;100.00
51259;BME280;37327;54.254;18.504;2023-03-22T07:56:59;100346.69;;;9.19;100.00
51259;BME280;37327;54.254;18.504;2023-03-22T08:00:17;100353.10;;;9.73;100.00
51259;BME280;37327;54.254;18.504;2023-03-22T08:03:35;100342.98;;;10.13;100.00
51259;BME280;37327;54.254;18.504;2023-03-22T08:06:54;100346.49;;;10.36;100.00
51259;BME280;37327;54.254;18.504;2023-03-22T08:10:16;100342.77;;;10.52;100.00
51259;BME280;37327;54.254;18.504;2023-03-22T08:13:33;100344.29;;;10.55;100.00
51259;BME280;37327;54.254;18.504;2023-03-22T08:16:52;100347.42;;;10.58;100.00
51259;BME280;37327;54.254;18.504;2023-03-22T08:20:10;100335.98;;;10.56;100.00
51259;BME280;37327;54.254;18.504;2023-03-22T08:23:28;100345.77;;;10.57;100.00
51259;BME280;37327;54.254;18.504;2023-03-22T08:26:46;100334.22;;;10.63;100.00
51259;BME280;37327;54.254;18.504;2023-03-22T08:30:06;100332.82;;;10.67;100.00
51259;BME280;37327;54.254;18.504;2023-03-22T08:33:24;100334.30;;;10.70;100.00
51259;BME280;37327;54.254;18.504;2023-03-22T08:36:41;100338.88;;;10.70;100.00
51259;BME280;37327;54.254;18.504;2023-03-22T08:39:59;100342.79;;;10.67;100.00
51259;BME280;37327;54.254;18.504;2023-03-22T08:43:16;100341.03;;;10.59;100.00
51259;BME280;37327;54.254;18.504;2023-03-22T08:46:36;100344.08;;;10.56;100.00
51259;BME280;37327;54.254;18.504;2023-03-22T08:49:53;100337.20;;;10.54;100.00
51259;BME280;37327;54.254;18.504;2023-03-22T08:53:10;100342.03;;;10.58;100.00
51259;BME280;37327;54.254;18.504;2023-03-22T08:56:29;100339.63;;;10.78;100.00
51259;BME280;37327;54.254;18.504;2023-03-22T08:59:55;100334.95;;;10.87;100.00
51259;BME280;37327;54.254;18.504;2023-03-22T09:03:13;100338.05;;;10.84;100.00
51259;BME280;37327;54.254;18.504;2023-03-22T09:06:32;100337.76;;;10.79;100.00
51259;BME280;37327;54.254;18.504;2023-03-22T09:09:50;100327.32;;;10.76;100.00
51259;BME280;37327;54.254;18.504;2023-03-22T09:13:07;100320.26;;;10.75;100.00
51259;BME280;37327;54.254;18.504;2023-03-22T09:16:24;100316.52;;;10.76;100.00
51259;BME280;37327;54.254;18.504;2023-03-22T09:19:41;100313.64;;;10.77;100.00
51259;BME280;37327;54.254;18.504;2023-03-22T09:22:59;100309.88;;;10.93;100.00
51259;BME280;37327;54.254;18.504;2023-03-22T09:26:17;100309.57;;;11.18;100.00
51259;BME280;37327;54.254;18.504;2023-03-22T09:29:34;100313.06;;;11.33;100.00
51259;BME280;37327;54.254;18.504;2023-03-22T09:32:51;100312.48;;;11.38;100.00
51259;BME280;37327;54.254;18.504;2023-03-22T09:36:10;100309.71;;;11.31;100.00
51259;BME280;37327;54.254;18.504;2023-03-22T09:39:30;100307.20;;;11.30;100.00
51259;BME280;37327;54.254;18.504;2023-03-22T09:42:50;100307.02;;;11.31;100.00
51259;BME280;37327;54.254;18.504;2023-03-22T09:46:13;100308.30;;;11.35;99.42
51259;BME280;37327;54.254;18.504;2023-03-22T09:49:37;100303.67;;;11.51;99.80
51259;BME280;37327;54.254;18.504;2023-03-22T09:52:56;100303.68;;;11.94;100.00
51259;BME280;37327;54.254;18.504;2023-03-22T09:56:24;100301.83;;;12.22;98.75
51259;BME280;37327;54.254;18.504;2023-03-22T09:59:54;100286.45;;;12.30;96.77
51259;BME280;37327;54.254;18.504;2023-03-22T10:06:48;100290.56;;;12.54;95.67
51259;BME280;37327;54.254;18.504;2023-03-22T10:13:40;100274.24;;;12.89;93.80
51259;BME280;37327;54.254;18.504;2023-03-22T10:17:05;100270.52;;;12.96;92.36
51259;BME280;37327;54.254;18.504;2023-03-22T10:24:05;100277.75;;;13.31;91.19
51259;BME280;37327;54.254;18.504;2023-03-22T10:27:27;100270.70;;;13.50;88.50
51259;BME280;37327;54.254;18.504;2023-03-22T10:30:49;100268.16;;;13.41;87.53
51259;BME280;37327;54.254;18.504;2023-03-22T10:37:40;100268.59;;;13.38;88.38
51259;BME280;37327;54.254;18.504;2023-03-22T10:41:01;100274.21;;;13.37;88.03
51259;BME280;37327;54.254;18.504;2023-03-22T10:44:20;100273.34;;;13.30;87.08
51259;BME280;37327;54.254;18.504;2023-03-22T10:47:41;100276.65;;;13.18;86.75
51259;BME280;37327;54.254;18.504;2023-03-22T10:51:02;100261.84;;;13.14;86.63
51259;BME280;37327;54.254;18.504;2023-03-22T10:54:20;100252.29;;;13.32;87.62
51259;BME280;37327;54.254;18.504;2023-03-22T10:57:40;100245.63;;;13.41;87.71
51259;BME280;37327;54.254;18.504;2023-03-22T11:01:06;100252.34;;;13.52;87.37
51259;BME280;37327;54.254;18.504;2023-03-22T11:04:24;100245.03;;;13.72;86.64
51259;BME280;37327;54.254;18.504;2023-03-22T11:07:44;100242.93;;;14.01;85.78
51259;BME280;37327;54.254;18.504;2023-03-22T11:11:05;100235.16;;;14.25;84.12
51259;BME280;37327;54.254;18.504;2023-03-22T11:14:30;100229.28;;;14.34;82.27
51259;BME280;37327;54.254;18.504;2023-03-22T11:17:48;100227.14;;;14.56;82.02
51259;BME280;37327;54.254;18.504;2023-03-22T11:21:09;100242.20;;;14.59;80.03
51259;BME280;37327;54.254;18.504;2023-03-22T11:24:30;100249.73;;;14.44;79.72
51259;BME280;37327;54.254;18.504;2023-03-22T11:27:56;100256.66;;;14.33;80.02
51259;BME280;37327;54.254;18.504;2023-03-22T11:31:19;100255.24;;;14.10;79.24
51259;BME280;37327;54.254;18.504;2023-03-22T11:34:37;100249.38;;;14.00;79.60
51259;BME280;37327;54.254;18.504;2023-03-22T11:37:55;100253.57;;;13.96;80.68
51259;BME280;37327;54.254;18.504;2023-03-22T11:44:43;100242.53;;;13.64;80.84
51259;BME280;37327;54.254;18.504;2023-03-22T11:48:05;100242.12;;;13.54;81.69
51259;BME280;37327;54.254;18.504;2023-03-22T11:51:29;100243.15;;;13.46;82.35
51259;BME280;37327;54.254;18.504;2023-03-22T11:54:50;100233.97;;;13.40;82.41
51259;BME280;37327;54.254;18.504;2023-03-22T11:58:25;100222.68;;;13.43;82.72
51259;BME280;37327;54.254;18.504;2023-03-22T12:01:42;100216.03;;;13.53;83.18
51259;BME280;37327;54.254;18.504;2023-03-22T12:08:38;100206.02;;;13.73;82.27
51259;BME280;37327;54.254;18.504;2023-03-22T12:12:00;100191.82;;;13.85;82.17
51259;BME280;37327;54.254;18.504;2023-03-22T12:19:02;100190.55;;;13.87;81.23
51259;BME280;37327;54.254;18.504;2023-03-22T12:22:18;100187.20;;;13.78;80.60
51259;BME280;37327;54.254;18.504;2023-03-22T12:25:37;100188.05;;;13.72;80.34
51259;BME280;37327;54.254;18.504;2023-03-22T12:29:03;100187.85;;;13.74;80.57
51259;BME280;37327;54.254;18.504;2023-03-22T12:32:28;100183.05;;;13.76;80.64
51259;BME280;37327;54.254;18.504;2023-03-22T12:35:50;100186.19;;;13.79;80.89
51259;BME280;37327;54.254;18.504;2023-03-22T12:39:23;100195.16;;;13.73;80.48
51259;BME280;37327;54.254;18.504;2023-03-22T12:46:14;100192.23;;;13.55;81.66
51259;BME280;37327;54.254;18.504;2023-03-22T12:53:14;100192.23;;;13.41;81.67
51259;BME280;37327;54.254;18.504;2023-03-22T12:56:37;100182.65;;;13.39;82.15
51259;BME280;37327;54.254;18.504;2023-03-22T12:59:58;100173.06;;;13.36;82.00
51259;BME280;37327;54.254;18.504;2023-03-22T13:03:35;100164.30;;;13.34;82.00
51259;BME280;37327;54.254;18.504;2023-03-22T13:06:56;100166.14;;;13.27;82.31
51259;BME280;37327;54.254;18.504;2023-03-22T13:13:46;100169.05;;;13.19;83.00
51259;BME280;37327;54.254;18.504;2023-03-22T13:17:05;100167.18;;;13.13;82.68
51259;BME280;37327;54.254;18.504;2023-03-22T13:20:25;100165.27;;;13.00;82.12
51259;BME280;37327;54.254;18.504;2023-03-22T13:27:15;100149.62;;;12.89;84.03
51259;BME280;37327;54.254;18.504;2023-03-22T13:30:35;100149.62;;;12.89;84.08
51259;BME280;37327;54.254;18.504;2023-03-22T13:34:03;100146.91;;;12.89;84.76
51259;BME280;37327;54.254;18.504;2023-03-22T13:44:28;100130.45;;;12.90;84.99
51259;BME280;37327;54.254;18.504;2023-03-22T13:48:00;100135.47;;;12.93;84.60
51259;BME280;37327;54.254;18.504;2023-03-22T13:54:43;100119.44;;;13.18;84.38
51259;BME280;37327;54.254;18.504;2023-03-22T13:58:08;100126.53;;;13.26;84.10
51259;BME280;37327;54.254;18.504;2023-03-22T14:01:35;100125.93;;;13.31;84.19
51259;BME280;37327;54.254;18.504;2023-03-22T14:05:02;100141.99;;;13.32;83.62
51259;BME280;37327;54.254;18.504;2023-03-22T14:08:25;100137.59;;;13.31;83.52
51259;BME280;37327;54.254;18.504;2023-03-22T14:11:57;100123.59;;;13.28;83.59
51259;BME280;37327;54.254;18.504;2023-03-22T14:15:18;100120.06;;;13.20;83.33
51259;BME280;37327;54.254;18.504;2023-03-22T14:18:40;100116.29;;;13.08;83.61
51259;BME280;37327;54.254;18.504;2023-03-22T14:22:03;100114.41;;;13.02;84.11
51259;BME280;37327;54.254;18.504;2023-03-22T14:26:53;100120.86;;;12.94;84.80
51259;BME280;37327;54.254;18.504;2023-03-22T14:30:35;100123.78;;;12.86;84.94
51259;BME280;37327;54.254;18.504;2023-03-22T14:33:42;100123.16;;;12.77;85.54
51259;BME280;37327;54.254;18.504;2023-03-22T14:37:03;100128.73;;;12.62;85.49
51259;BME280;37327;54.254;18.504;2023-03-22T14:40:30;100126.62;;;12.51;86.10
51259;BME280;37327;54.254;18.504;2023-03-22T14:43:50;100127.44;;;12.45;86.42
51259;BME280;37327;54.254;18.504;2023-03-22T14:47:18;100136.99;;;12.41;86.81
51259;BME280;37327;54.254;18.504;2023-03-22T14:50:43;100133.47;;;12.40;86.93
51259;BME280;37327;54.254;18.504;2023-03-22T14:54:05;100123.27;;;12.42;87.24
51259;BME280;37327;54.254;18.504;2023-03-22T14:57:30;100125.12;;;12.42;87.39
51259;BME280;37327;54.254;18.504;2023-03-22T15:00:49;100125.12;;;12.42;87.69
51259;BME280;37327;54.254;18.504;2023-03-22T15:04:09;100128.25;;;12.39;88.17
51259;BME280;37327;54.254;18.504;2023-03-22T15:07:28;100126.98;;;12.35;88.63
51259;BME280;37327;54.254;18.504;2023-03-22T15:10:54;100118.03;;;12.34;89.61
51259;BME280;37327;54.254;18.504;2023-03-22T15:14:13;100114.09;;;12.37;90.32
51259;BME280;37327;54.254;18.504;2023-03-22T15:17:31;100111.58;;;12.42;90.56
51259;BME280;37327;54.254;18.504;2023-03-22T15:20:53;100102.67;;;12.48;90.43
51259;BME280;37327;54.254;18.504;2023-03-22T15:24:21;100097.26;;;12.48;90.01
51259;BME280;37327;54.254;18.504;2023-03-22T15:27:39;100105.77;;;12.45;89.80
51259;BME280;37327;54.254;18.504;2023-03-22T15:30:59;100106.59;;;12.39;89.80
51259;BME280;37327;54.254;18.504;2023-03-22T15:34:23;100109.05;;;12.34;89.92
51259;BME280;37327;54.254;18.504;2023-03-22T15:37:47;100101.55;;;12.29;90.22
51259;BME280;37327;54.254;18.504;2023-03-22T15:44:37;100083.63;;;12.21;90.42
51259;BME280;37327;54.254;18.504;2023-03-22T15:51:31;100087.58;;;12.19;90.43
51259;BME280;37327;54.254;18.504;2023-03-22T15:54:58;100083.39;;;12.16;90.78
51259;BME280;37327;54.254;18.504;2023-03-22T15:58:26;100079.42;;;12.12;91.28
51259;BME280;37327;54.254;18.504;2023-03-22T16:01:45;100098.15;;;12.07;91.27
51259;BME280;37327;54.254;18.504;2023-03-22T16:05:10;100106.02;;;12.02;91.63
51259;BME280;37327;54.254;18.504;2023-03-22T16:08:28;100108.49;;;11.97;92.06
51259;BME280;37327;54.254;18.504;2023-03-22T16:11:46;100096.40;;;11.93;92.13
51259;BME280;37327;54.254;18.504;2023-03-22T16:15:04;100102.23;;;11.90;92.20
51259;BME280;37327;54.254;18.504;2023-03-22T16:18:22;100096.54;;;11.84;92.48
51259;BME280;37327;54.254;18.504;2023-03-22T16:21:40;100090.89;;;11.79;92.75
51259;BME280;37327;54.254;18.504;2023-03-22T16:24:58;100091.50;;;11.75;92.90
51259;BME280;37327;54.254;18.504;2023-03-22T16:28:17;100092.11;;;11.70;93.20
51259;BME280;37327;54.254;18.504;2023-03-22T16:31:36;100098.31;;;11.64;93.33
51259;BME280;37327;54.254;18.504;2023-03-22T16:34:53;100105.79;;;11.62;93.71
51259;BME280;37327;54.254;18.504;2023-03-22T16:38:15;100102.84;;;11.57;94.18
51259;BME280;37327;54.254;18.504;2023-03-22T16:41:33;100109.67;;;11.53;94.60
51259;BME280;37327;54.254;18.504;2023-03-22T16:44:53;100117.53;;;11.48;94.77
51259;BME280;37327;54.254;18.504;2023-03-22T16:48:12;100118.96;;;11.43;94.87
51259;BME280;37327;54.254;18.504;2023-03-22T16:51:33;100125.80;;;11.39;95.05
51259;BME280;37327;54.254;18.504;2023-03-22T16:54:52;100130.56;;;11.37;95.42
51259;BME280;37327;54.254;18.504;2023-03-22T16:58:11;100122.20;;;11.32;95.67
51259;BME280;37327;54.254;18.504;2023-03-22T17:01:30;100136.12;;;11.29;95.90
51259;BME280;37327;54.254;18.504;2023-03-22T17:04:47;100127.55;;;11.25;96.09
51259;BME280;37327;54.254;18.504;2023-03-22T17:08:09;100122.34;;;11.24;96.41
51259;BME280;37327;54.254;18.504;2023-03-22T17:11:29;100123.77;;;11.20;96.85
51259;BME280;37327;54.254;18.504;2023-03-22T17:14:48;100124.15;;;11.17;97.22
51259;BME280;37327;54.254;18.504;2023-03-22T17:18:07;100124.55;;;11.14;97.48
51259;BME280;37327;54.254;18.504;2023-03-22T17:21:29;100118.70;;;11.10;97.82
51259;BME280;37327;54.254;18.504;2023-03-22T17:24:47;100116.59;;;11.05;98.24
51259;BME280;37327;54.254;18.504;2023-03-22T17:28:06;100115.31;;;11.01;98.76
51259;BME280;37327;54.254;18.504;2023-03-22T17:31:23;100118.40;;;10.98;98.94
51259;BME280;37327;54.254;18.504;2023-03-22T17:34:42;100126.87;;;10.95;99.27
51259;BME280;37327;54.254;18.504;2023-03-22T17:38:02;100123.74;;;10.92;99.75
51259;BME280;37327;54.254;18.504;2023-03-22T17:41:19;100121.41;;;10.89;99.90
51259;BME280;37327;54.254;18.504;2023-03-22T17:44:37;100117.25;;;10.86;100.00
51259;BME280;37327;54.254;18.504;2023-03-22T17:47:57;100120.13;;;10.84;100.00
51259;BME280;37327;54.254;18.504;2023-03-22T17:51:18;100120.50;;;10.81;100.00
51259;BME280;37327;54.254;18.504;2023-03-22T17:54:35;100121.74;;;10.79;100.00
51259;BME280;37327;54.254;18.504;2023-03-22T17:57:53;100120.27;;;10.76;100.00
51259;BME280;37327;54.254;18.504;2023-03-22T18:01:12;100116.71;;;10.76;100.00
51259;BME280;37327;54.254;18.504;2023-03-22T18:04:33;100111.71;;;10.73;100.00
51259;BME280;37327;54.254;18.504;2023-03-22T18:07:53;100113.77;;;10.71;100.00
51259;BME280;37327;54.254;18.504;2023-03-22T18:11:14;100115.84;;;10.69;100.00
51259;BME280;37327;54.254;18.504;2023-03-22T18:14:32;100104.58;;;10.65;100.00
51259;BME280;37327;54.254;18.504;2023-03-22T18:17:50;100118.44;;;10.62;100.00
51259;BME280;37327;54.254;18.504;2023-03-22T18:21:10;100117.98;;;10.58;100.00
51259;BME280;37327;54.254;18.504;2023-03-22T18:24:32;100113.99;;;10.54;100.00
51259;BME280;37327;54.254;18.504;2023-03-22T18:27:49;100111.88;;;10.50;100.00
51259;BME280;37327;54.254;18.504;2023-03-22T18:31:09;100107.89;;;10.45;100.00
51259;BME280;37327;54.254;18.504;2023-03-22T18:34:27;100105.38;;;10.44;100.00
51259;BME280;37327;54.254;18.504;2023-03-22T18:37:44;100099.34;;;10.42;100.00
51259;BME280;37327;54.254;18.504;2023-03-22T18:41:08;100090.60;;;10.40;100.00
51259;BME280;37327;54.254;18.504;2023-03-22T18:44:27;100090.60;;;10.40;100.00
51259;BME280;37327;54.254;18.504;2023-03-22T18:47:45;100085.20;;;10.40;100.00
51259;BME280;37327;54.254;18.504;2023-03-22T18:51:03;100084.56;;;10.38;100.00
51259;BME280;37327;54.254;18.504;2023-03-22T18:54:22;100076.47;;;10.38;100.00
51259;BME280;37327;54.254;18.504;2023-03-22T18:57:39;100077.47;;;10.37;100.00
51259;BME280;37327;54.254;18.504;2023-03-22T19:00:59;100072.29;;;10.35;100.00
51259;BME280;37327;54.254;18.504;2023-03-22T19:04:18;100075.18;;;10.34;100.00
51259;BME280;37327;54.254;18.504;2023-03-22T19:07:36;100070.15;;;10.31;100.00
51259;BME280;37327;54.254;18.504;2023-03-22T19:10:53;100070.15;;;10.31;100.00
51259;BME280;37327;54.254;18.504;2023-03-22T19:14:11;100064.08;;;10.28;100.00
51259;BME280;37327;54.254;18.504;2023-03-22T19:17:29;100067.59;;;10.29;100.00
51259;BME280;37327;54.254;18.504;2023-03-22T19:20:49;100075.91;;;10.27;100.00
51259;BME280;37327;54.254;18.504;2023-03-22T19:24:06;100066.95;;;10.27;100.00
51259;BME280;37327;54.254;18.504;2023-03-22T19:27:24;100061.56;;;10.27;100.00
51259;BME280;37327;54.254;18.504;2023-03-22T19:30:47;100053.47;;;10.27;100.00
51259;BME280;37327;54.254;18.504;2023-03-22T19:34:04;100058.22;;;10.25;100.00
51259;BME280;37327;54.254;18.504;2023-03-22T19:37:23;100056.39;;;10.25;100.00
51259;BME280;37327;54.254;18.504;2023-03-22T19:40:40;100050.98;;;10.25;100.00
51259;BME280;37327;54.254;18.504;2023-03-22T19:43:58;100050.98;;;10.25;100.00
51259;BME280;37327;54.254;18.504;2023-03-22T19:47:15;100050.98;;;10.25;100.00
51259;BME280;37327;54.254;18.504;2023-03-22T19:50:32;100050.98;;;10.25;100.00
51259;BME280;37327;54.254;18.504;2023-03-22T19:53:51;100039.33;;;10.25;100.00
51259;BME280;37327;54.254;18.504;2023-03-22T19:57:10;100040.56;;;10.22;100.00
51259;BME280;37327;54.254;18.504;2023-03-22T20:00:29;100036.00;;;10.23;100.00
51259;BME280;37327;54.254;18.504;2023-03-22T20:03:47;100044.73;;;10.25;100.00
51259;BME280;37327;54.254;18.504;2023-03-22T20:07:05;100039.55;;;10.23;100.00
51259;BME280;37327;54.254;18.504;2023-03-22T20:10:23;100034.52;;;10.20;100.00
51259;BME280;37327;54.254;18.504;2023-03-22T20:13:41;100029.13;;;10.20;100.00
51259;BME280;37327;54.254;18.504;2023-03-22T20:16:58;100035.54;;;10.19;100.00
51259;BME280;37327;54.254;18.504;2023-03-22T20:20:16;100030.14;;;10.19;100.00
51259;BME280;37327;54.254;18.504;2023-03-22T20:23:34;100024.74;;;10.19;100.00
51259;BME280;37327;54.254;18.504;2023-03-22T20:26:52;100026.61;;;10.19;100.00
51259;BME280;37327;54.254;18.504;2023-03-22T20:30:10;100023.09;;;10.18;100.00
51259;BME280;37327;54.254;18.504;2023-03-22T20:33:28;100019.75;;;10.16;100.00
51259;BME280;37327;54.254;18.504;2023-03-22T20:36:45;100019.93;;;10.15;100.00
51259;BME280;37327;54.254;18.504;2023-03-22T20:40:04;100016.41;;;10.14;100.00
51259;BME280;37327;54.254;18.504;2023-03-22T20:43:22;100013.71;;;10.14;100.00
51259;BME280;37327;54.254;18.504;2023-03-22T20:46:39;100013.71;;;10.14;100.00
51259;BME280;37327;54.254;18.504;2023-03-22T20:49:57;100006.63;;;10.13;100.00
51259;BME280;37327;54.254;18.504;2023-03-22T20:53:14;100005.80;;;10.13;100.00
51259;BME280;37327;54.254;18.504;2023-03-22T20:56:34;99997.26;;;10.09;100.00
51259;BME280;37327;54.254;18.504;2023-03-22T20:59:51;100002.66;;;10.09;100.00
51259;BME280;37327;54.254;18.504;2023-03-22T21:03:08;100008.23;;;10.07;100.00